createdAt,value
2017-05-28T00:00:05.108Z,0
2017-05-28T00:01:05.091Z,0
2017-05-28T00:02:05.079Z,0
2017-05-28T00:03:05.066Z,0
2017-05-28T00:04:05.039Z,0
2017-05-28T00:05:05.024Z,0
2017-05-28T00:06:05.022Z,0
2017-05-28T00:07:04.981Z,0
2017-05-28T00:08:04.964Z,0
2017-05-28T00:09:04.998Z,0
2017-05-28T00:10:04.923Z,0
2017-05-28T00:11:04.959Z,0
2017-05-28T00:12:04.954Z,0
2017-05-28T00:13:04.882Z,0
2017-05-28T00:14:04.880Z,0
2017-05-28T00:15:04.841Z,0
2017-05-28T00:16:04.523Z,0
2017-05-28T00:17:04.855Z,0
2017-05-28T00:18:04.836Z,0
2017-05-28T00:19:04.765Z,0
2017-05-28T00:20:04.759Z,0
2017-05-28T00:21:04.734Z,0
2017-05-28T00:22:04.768Z,0
2017-05-28T00:23:04.689Z,0
2017-05-28T00:24:04.381Z,0
2017-05-28T00:25:04.659Z,0
2017-05-28T00:26:04.641Z,0
2017-05-28T00:27:04.882Z,0
2017-05-28T00:28:04.608Z,0
2017-05-28T00:29:04.588Z,0
2017-05-28T00:30:04.265Z,0
2017-05-28T00:31:04.542Z,0
2017-05-28T00:32:04.528Z,0
2017-05-28T00:33:04.508Z,0
2017-05-28T00:34:03.890Z,0
2017-05-28T00:35:04.481Z,0
2017-05-28T00:36:04.451Z,0
2017-05-28T00:37:04.436Z,0
2017-05-28T00:38:04.476Z,0
2017-05-28T00:39:04.410Z,0
2017-05-28T00:40:04.391Z,0
2017-05-28T00:41:04.373Z,0
2017-05-28T00:42:04.345Z,0
2017-05-28T00:43:04.343Z,0
2017-05-28T00:44:04.308Z,0
2017-05-28T00:45:04.290Z,0
2017-05-28T00:46:04.276Z,0
2017-05-28T00:47:04.264Z,0
2017-05-28T00:48:04.252Z,0
2017-05-28T00:49:04.267Z,0
2017-05-28T00:50:04.205Z,0
2017-05-28T00:51:03.880Z,0
2017-05-28T00:52:04.164Z,0
2017-05-28T00:53:04.196Z,0
2017-05-28T00:54:04.122Z,0
2017-05-28T00:55:04.126Z,0
2017-05-28T00:56:04.090Z,0
2017-05-28T00:57:04.079Z,0
2017-05-28T00:58:04.054Z,0
2017-05-28T00:59:03.726Z,0
2017-05-28T01:00:04.009Z,0
2017-05-28T01:01:03.995Z,0
2017-05-28T01:02:03.981Z,0
2017-05-28T01:03:04.015Z,0
2017-05-28T01:04:03.952Z,0
2017-05-28T01:05:03.925Z,0
2017-05-28T01:06:03.899Z,0
2017-05-28T01:07:03.891Z,0
2017-05-28T01:08:03.863Z,0
2017-05-28T01:09:03.856Z,0
2017-05-28T01:10:03.880Z,0
2017-05-28T01:11:03.810Z,0
2017-05-28T01:12:03.494Z,0
2017-05-28T01:13:03.775Z,0
2017-05-28T01:14:03.754Z,0
2017-05-28T01:15:03.744Z,0
2017-05-28T01:16:03.711Z,0
2017-05-28T01:17:03.701Z,0
2017-05-28T01:18:03.679Z,0
2017-05-28T01:19:03.368Z,0
2017-05-28T01:20:03.351Z,0
2017-05-28T01:21:03.625Z,0
2017-05-28T01:22:03.657Z,0
2017-05-28T01:23:03.592Z,0
2017-05-28T01:24:03.570Z,0
2017-05-28T01:25:03.551Z,0
2017-05-28T01:26:03.231Z,0
2017-05-28T01:27:03.511Z,0
2017-05-28T01:28:03.501Z,0
2017-05-28T01:29:03.481Z,0
2017-05-28T01:30:03.461Z,0
2017-05-28T01:31:03.489Z,0
2017-05-28T01:32:03.416Z,0
2017-05-28T01:33:03.402Z,0
2017-05-28T01:34:03.381Z,0
2017-05-28T01:35:03.359Z,0
2017-05-28T01:36:03.360Z,0
2017-05-28T01:37:03.378Z,0
2017-05-28T01:38:03.310Z,0
2017-05-28T01:39:03.279Z,0
2017-05-28T01:40:03.278Z,0
2017-05-28T01:41:03.246Z,0
2017-05-28T01:42:03.235Z,0
2017-05-28T01:43:03.225Z,0
2017-05-28T01:44:03.208Z,0
2017-05-28T01:45:03.230Z,0
2017-05-28T01:46:03.164Z,0
2017-05-28T01:47:03.142Z,0
2017-05-28T01:48:03.119Z,0
2017-05-28T01:49:03.111Z,0
2017-05-28T01:50:03.085Z,0
2017-05-28T01:51:03.073Z,0
2017-05-28T01:52:03.043Z,0
2017-05-28T01:53:03.035Z,0
2017-05-28T01:54:03.003Z,0
2017-05-28T01:55:02.994Z,0
2017-05-28T01:56:03.021Z,0
2017-05-28T01:57:02.952Z,0
2017-05-28T01:58:02.939Z,0
2017-05-28T01:59:02.921Z,0
2017-05-28T02:00:02.906Z,0
2017-05-28T02:01:02.876Z,0
2017-05-28T02:02:02.865Z,0
2017-05-28T02:03:02.921Z,0
2017-05-28T02:04:02.842Z,0
2017-05-28T02:05:02.800Z,0
2017-05-28T02:06:02.785Z,0
2017-05-28T02:07:02.813Z,0
2017-05-28T02:08:02.742Z,0
2017-05-28T02:09:02.722Z,0
2017-05-28T02:10:02.701Z,0
2017-05-28T02:11:02.686Z,0
2017-05-28T02:12:02.674Z,0
2017-05-28T02:13:02.650Z,0
2017-05-28T02:14:02.638Z,0
2017-05-28T02:15:02.666Z,0
2017-05-28T02:16:02.599Z,0
2017-05-28T02:17:02.579Z,0
2017-05-28T02:18:02.559Z,0
2017-05-28T02:19:02.840Z,0
2017-05-28T02:20:02.527Z,0
2017-05-28T02:21:02.502Z,0
2017-05-28T02:22:02.481Z,0
2017-05-28T02:23:02.466Z,0
2017-05-28T02:24:02.454Z,0
2017-05-28T02:25:02.445Z,0
2017-05-28T02:26:02.468Z,0
2017-05-28T02:27:02.397Z,0
2017-05-28T02:28:02.383Z,0
2017-05-28T02:29:02.048Z,0
2017-05-28T02:30:02.339Z,0
2017-05-28T02:31:02.313Z,0
2017-05-28T02:32:02.294Z,0
2017-05-28T02:33:02.329Z,4
2017-05-28T02:34:02.257Z,4
2017-05-28T02:35:02.235Z,0
2017-05-28T02:36:02.220Z,0
2017-05-28T02:37:02.195Z,4
2017-05-28T02:38:01.888Z,4
2017-05-28T02:39:01.857Z,4
2017-05-28T02:40:01.857Z,4
2017-05-28T02:41:02.134Z,4
2017-05-28T02:42:02.097Z,4
2017-05-28T02:43:02.087Z,4
2017-05-28T02:44:02.065Z,4
2017-05-28T02:45:02.043Z,8
2017-05-28T02:46:02.036Z,8
2017-05-28T02:47:02.013Z,8
2017-05-28T02:48:02.003Z,8
2017-05-28T02:49:01.975Z,12
2017-05-28T02:50:01.957Z,16
2017-05-28T02:51:01.638Z,16
2017-05-28T02:52:01.930Z,16
2017-05-28T02:53:01.946Z,16
2017-05-28T02:54:01.880Z,20
2017-05-28T02:55:01.863Z,24
2017-05-28T02:56:01.833Z,24
2017-05-28T02:57:01.814Z,28
2017-05-28T02:58:01.805Z,36
2017-05-28T02:59:01.782Z,40
2017-05-28T03:00:01.759Z,40
2017-05-28T03:01:01.742Z,44
2017-05-28T03:02:01.743Z,52
2017-05-28T03:03:01.714Z,56
2017-05-28T03:04:01.685Z,64
2017-05-28T03:05:01.418Z,72
2017-05-28T03:06:01.345Z,76
2017-05-28T03:07:01.628Z,84
2017-05-28T03:08:01.619Z,92
2017-05-28T03:09:01.603Z,104
2017-05-28T03:10:01.570Z,112
2017-05-28T03:11:01.557Z,120
2017-05-28T03:12:01.537Z,128
2017-05-28T03:13:01.511Z,144
2017-05-28T03:14:01.502Z,160
2017-05-28T03:15:01.476Z,172
2017-05-28T03:16:01.508Z,188
2017-05-28T03:17:01.442Z,200
2017-05-28T03:18:01.483Z,220
2017-05-28T03:19:01.424Z,240
2017-05-28T03:20:01.393Z,256
2017-05-28T03:21:01.369Z,276
2017-05-28T03:22:01.348Z,296
2017-05-28T03:23:01.341Z,328
2017-05-28T03:24:00.999Z,360
2017-05-28T03:25:00.983Z,392
2017-05-28T03:26:01.271Z,416
2017-05-28T03:27:01.248Z,436
2017-05-28T03:28:01.228Z,464
2017-05-28T03:29:01.220Z,496
2017-05-28T03:30:01.202Z,532
2017-05-28T03:31:01.177Z,568
2017-05-28T03:32:01.148Z,616
2017-05-28T03:33:01.131Z,664
2017-05-28T03:34:01.117Z,708
2017-05-28T03:35:01.099Z,752
2017-05-28T03:36:01.081Z,788
2017-05-28T03:37:01.063Z,816
2017-05-28T03:38:01.042Z,856
2017-05-28T03:39:01.020Z,908
2017-05-28T03:40:01.004Z,984
2017-05-28T03:41:00.975Z,1068
2017-05-28T03:42:00.679Z,1160
2017-05-28T03:43:00.943Z,1252
2017-05-28T03:44:01.033Z,1344
2017-05-28T03:45:00.907Z,1440
2017-05-28T03:46:00.893Z,1516
2017-05-28T03:47:00.270Z,1572
2017-05-28T03:48:00.850Z,1612
2017-05-28T03:49:00.834Z,1648
2017-05-28T03:50:00.854Z,1676
2017-05-28T03:51:00.789Z,1712
2017-05-28T03:52:00.775Z,1752
2017-05-28T03:53:00.464Z,1800
2017-05-28T03:54:00.737Z,1884
2017-05-28T03:55:00.722Z,1968
2017-05-28T03:56:00.708Z,2072
2017-05-28T03:57:00.723Z,2164
2017-05-28T03:58:00.665Z,2220
2017-05-28T03:59:00.696Z,2352
2017-05-28T04:00:00.742Z,2476
2017-05-28T04:01:00.605Z,2468
2017-05-28T04:02:00.295Z,2552
2017-05-28T04:03:00.562Z,2616
2017-05-28T04:04:00.555Z,2612
2017-05-28T04:05:00.539Z,2532
2017-05-28T04:06:00.510Z,2420
2017-05-28T04:07:00.546Z,2304
2017-05-28T04:08:00.471Z,2340
2017-05-28T04:09:00.458Z,2436
2017-05-28T04:10:00.437Z,2384
2017-05-28T04:11:00.410Z,2384
2017-05-28T04:12:00.396Z,2316
2017-05-28T04:13:00.382Z,2156
2017-05-28T04:14:00.409Z,1960
2017-05-28T04:15:00.339Z,1864
2017-05-28T04:16:00.328Z,1912
2017-05-28T04:17:00.355Z,1892
2017-05-28T04:17:59.987Z,1852
2017-05-28T04:19:00.274Z,1836
2017-05-28T04:20:00.251Z,1756
2017-05-28T04:21:00.274Z,1684
2017-05-28T04:21:59.909Z,1612
2017-05-28T04:23:00.189Z,1540
2017-05-28T04:24:00.188Z,1464
2017-05-28T04:25:00.151Z,1396
2017-05-28T04:26:00.134Z,1388
2017-05-28T04:27:00.110Z,1420
2017-05-28T04:28:00.093Z,1472
2017-05-28T04:28:59.777Z,1480
2017-05-28T04:30:00.056Z,1528
2017-05-28T04:31:00.048Z,1560
2017-05-28T04:32:00.020Z,1484
2017-05-28T04:33:00.008Z,1444
2017-05-28T04:33:59.704Z,1496
2017-05-28T04:34:59.972Z,1564
2017-05-28T04:35:59.955Z,1628
2017-05-28T04:36:59.629Z,1612
2017-05-28T04:37:59.617Z,1576
2017-05-28T04:38:59.908Z,1520
2017-05-28T04:39:59.883Z,1564
2017-05-28T04:40:59.858Z,1640
2017-05-28T04:41:59.536Z,1728
2017-05-28T04:42:59.889Z,1756
2017-05-28T04:43:59.802Z,1820
2017-05-28T04:44:59.825Z,1896
2017-05-28T04:45:59.760Z,2048
2017-05-28T04:46:59.758Z,2172
2017-05-28T04:47:59.720Z,2220
2017-05-28T04:48:59.702Z,2240
2017-05-28T04:49:59.687Z,2232
2017-05-28T04:50:59.662Z,2200
2017-05-28T04:51:59.653Z,2176
2017-05-28T04:52:59.629Z,2152
2017-05-28T04:53:59.666Z,2124
2017-05-28T04:54:59.641Z,2108
2017-05-28T04:55:59.582Z,2092
2017-05-28T04:56:59.566Z,2072
2017-05-28T04:57:59.532Z,2052
2017-05-28T04:58:59.528Z,2056
2017-05-28T04:59:59.505Z,2084
2017-05-28T05:00:59.489Z,2104
2017-05-28T05:01:59.462Z,2124
2017-05-28T05:02:59.451Z,2104
2017-05-28T05:03:59.181Z,2100
2017-05-28T05:04:59.405Z,2092
2017-05-28T05:05:59.389Z,2076
2017-05-28T05:06:59.373Z,2072
2017-05-28T05:07:59.408Z,2064
2017-05-28T05:08:59.331Z,1984
2017-05-28T05:09:59.021Z,1940
2017-05-28T05:10:59.296Z,2016
2017-05-28T05:11:59.273Z,2140
2017-05-28T05:12:59.249Z,2256
2017-05-28T05:13:59.247Z,2312
2017-05-28T05:14:59.221Z,2200
2017-05-28T05:15:59.200Z,1968
2017-05-28T05:16:59.181Z,1824
2017-05-28T05:17:59.164Z,1760
2017-05-28T05:18:59.155Z,1756
2017-05-28T05:19:59.127Z,1784
2017-05-28T05:20:59.112Z,1864
2017-05-28T05:21:59.093Z,1912
2017-05-28T05:22:59.065Z,1852
2017-05-28T05:23:59.112Z,1732
2017-05-28T05:24:58.731Z,1664
2017-05-28T05:25:59.009Z,1744
2017-05-28T05:26:58.993Z,1936
2017-05-28T05:27:58.976Z,2200
2017-05-28T05:28:58.959Z,2420
2017-05-28T05:29:58.957Z,2636
2017-05-28T05:30:58.985Z,2692
2017-05-28T05:31:58.900Z,2632
2017-05-28T05:32:58.880Z,2484
2017-05-28T05:33:58.921Z,2308
2017-05-28T05:34:58.549Z,2132
2017-05-28T05:35:58.527Z,2024
2017-05-28T05:36:58.514Z,1892
2017-05-28T05:37:58.795Z,1792
2017-05-28T05:38:58.779Z,1812
2017-05-28T05:39:58.766Z,1944
2017-05-28T05:40:58.731Z,2088
2017-05-28T05:41:58.717Z,2176
2017-05-28T05:42:58.748Z,2188
2017-05-28T05:43:58.383Z,2156
2017-05-28T05:44:58.673Z,2048
2017-05-28T05:45:58.634Z,1924
2017-05-28T05:46:58.621Z,1780
2017-05-28T05:47:58.600Z,1600
2017-05-28T05:48:58.635Z,1444
2017-05-28T05:49:58.570Z,1372
2017-05-28T05:50:58.557Z,1364
2017-05-28T05:51:58.287Z,1352
2017-05-28T05:52:58.223Z,1368
2017-05-28T05:53:58.499Z,1356
2017-05-28T05:54:58.482Z,1364
2017-05-28T05:55:58.453Z,1372
2017-05-28T05:56:58.438Z,1380
2017-05-28T05:57:58.445Z,1392
2017-05-28T05:58:58.399Z,1480
2017-05-28T05:59:58.386Z,1664
2017-05-28T06:00:58.368Z,1916
2017-05-28T06:01:58.394Z,2192
2017-05-28T06:02:58.321Z,2604
2017-05-28T06:03:58.304Z,3296
2017-05-28T06:04:58.294Z,3792
2017-05-28T06:05:58.267Z,4168
2017-05-28T06:06:58.244Z,4416
2017-05-28T06:07:58.229Z,4748
2017-05-28T06:08:58.216Z,5144
2017-05-28T06:09:58.208Z,5408
2017-05-28T06:10:58.222Z,5496
2017-05-28T06:11:57.901Z,5576
2017-05-28T06:12:58.134Z,5508
2017-05-28T06:13:58.121Z,5516
2017-05-28T06:14:58.100Z,5540
2017-05-28T06:15:58.130Z,5412
2017-05-28T06:16:58.060Z,5368
2017-05-28T06:17:58.041Z,5332
2017-05-28T06:18:58.023Z,5612
2017-05-28T06:19:58.008Z,5848
2017-05-28T06:20:58.034Z,5920
2017-05-28T06:21:57.662Z,5864
2017-05-28T06:22:58.002Z,5908
2017-05-28T06:23:57.983Z,6052
2017-05-28T06:24:57.916Z,6036
2017-05-28T06:25:57.596Z,5776
2017-05-28T06:26:57.879Z,5224
2017-05-28T06:27:57.853Z,4548
2017-05-28T06:28:57.839Z,3932
2017-05-28T06:29:57.825Z,3332
2017-05-28T06:30:57.802Z,2744
2017-05-28T06:31:57.775Z,2112
2017-05-28T06:32:57.765Z,1608
2017-05-28T06:33:57.441Z,1316
2017-05-28T06:34:57.734Z,1144
2017-05-28T06:35:57.700Z,992
2017-05-28T06:36:57.690Z,972
2017-05-28T06:37:57.676Z,952
2017-05-28T06:38:57.715Z,984
2017-05-28T06:39:57.628Z,1016
2017-05-28T06:40:57.359Z,1064
2017-05-28T06:41:57.589Z,1080
2017-05-28T06:42:57.273Z,1084
2017-05-28T06:43:57.611Z,1096
2017-05-28T06:44:57.539Z,1108
2017-05-28T06:45:57.512Z,1132
2017-05-28T06:46:57.199Z,1172
2017-05-28T06:47:57.480Z,1240
2017-05-28T06:48:57.766Z,1368
2017-05-28T06:49:57.455Z,1544
2017-05-28T06:50:57.128Z,1696
2017-05-28T06:51:57.396Z,1776
2017-05-28T06:52:57.382Z,2040
2017-05-28T06:53:57.370Z,2572
2017-05-28T06:54:57.339Z,3200
2017-05-28T06:55:57.382Z,3612
2017-05-28T06:56:57.297Z,3900
2017-05-28T06:57:57.288Z,3916
2017-05-28T06:58:57.311Z,3672
2017-05-28T06:59:57.250Z,3380
2017-05-28T07:00:56.922Z,3388
2017-05-28T07:01:57.220Z,3600
2017-05-28T07:02:57.195Z,3980
2017-05-28T07:03:57.169Z,4632
2017-05-28T07:04:57.161Z,5464
2017-05-28T07:05:57.134Z,6600
2017-05-28T07:06:57.112Z,8324
2017-05-28T07:07:57.101Z,10288
2017-05-28T07:08:57.084Z,11676
2017-05-28T07:09:57.067Z,12696
2017-05-28T07:10:57.031Z,14020
2017-05-28T07:11:57.016Z,15704
2017-05-28T07:12:57.051Z,17568
2017-05-28T07:13:56.980Z,19456
2017-05-28T07:14:56.961Z,16928
2017-05-28T07:15:56.932Z,15272
2017-05-28T07:16:56.916Z,15260
2017-05-28T07:17:56.943Z,15312
2017-05-28T07:18:56.877Z,15612
2017-05-28T07:19:56.867Z,15876
2017-05-28T07:20:56.848Z,16444
2017-05-28T07:21:56.818Z,17408
2017-05-28T07:22:56.817Z,17696
2017-05-28T07:23:56.791Z,17216
2017-05-28T07:24:56.814Z,16528
2017-05-28T07:25:56.756Z,16424
2017-05-28T07:26:56.734Z,16436
2017-05-28T07:27:56.716Z,17088
2017-05-28T07:28:56.690Z,19328
2017-05-28T07:29:56.667Z,24096
2017-05-28T07:30:56.664Z,24448
2017-05-28T07:31:56.637Z,19968
2017-05-28T07:32:56.626Z,24384
2017-05-28T07:33:56.600Z,20096
2017-05-28T07:34:56.275Z,19168
2017-05-28T07:35:56.567Z,22272
2017-05-28T07:36:56.667Z,23296
2017-05-28T07:37:56.539Z,42592
2017-05-28T07:38:56.250Z,52480
2017-05-28T07:39:56.516Z,52864
2017-05-28T07:40:56.477Z,47680
2017-05-28T07:41:56.538Z,48160
2017-05-28T07:42:56.448Z,47296
2017-05-28T07:43:56.445Z,42880
2017-05-28T07:44:56.423Z,45728
2017-05-28T07:45:56.470Z,48896
2017-05-28T07:46:56.389Z,53248
2017-05-28T07:47:56.375Z,56960
2017-05-28T07:48:56.361Z,60032
2017-05-28T07:49:56.396Z,60704
2017-05-28T07:50:56.331Z,60928
2017-05-28T07:51:56.324Z,57856
2017-05-28T07:52:56.331Z,53184
2017-05-28T07:53:56.306Z,51968
2017-05-28T07:54:55.987Z,27520
2017-05-28T07:55:56.287Z,52576
2017-05-28T07:56:56.268Z,54048
2017-05-28T07:57:56.254Z,55008
2017-05-28T07:58:56.247Z,55328
2017-05-28T07:59:56.294Z,54720
2017-05-28T08:00:56.235Z,55168
2017-05-28T08:01:56.226Z,54432
2017-05-28T08:02:56.217Z,54688
2017-05-28T08:03:55.904Z,60672
2017-05-28T08:04:56.192Z,63712
2017-05-28T08:05:56.193Z,60640
2017-05-28T08:06:56.214Z,65152
2017-05-28T08:07:55.866Z,57280
2017-05-28T08:08:56.201Z,63360
2017-05-28T08:09:56.158Z,58976
2017-05-28T08:10:56.141Z,52448
2017-05-28T08:11:56.137Z,36640
2017-05-28T08:12:56.183Z,59936
2017-05-28T08:13:56.117Z,74016
2017-05-28T08:14:56.115Z,62848
2017-05-28T08:15:56.101Z,54336
2017-05-28T08:16:56.156Z,52832
2017-05-28T08:17:56.089Z,54816
2017-05-28T08:18:56.133Z,54592
2017-05-28T08:19:56.078Z,59808
2017-05-28T08:20:56.064Z,58272
2017-05-28T08:21:56.069Z,56256
2017-05-28T08:22:56.110Z,55488
2017-05-28T08:23:56.103Z,56288
2017-05-28T08:24:56.050Z,59264
2017-05-28T08:25:56.044Z,60224
2017-05-28T08:26:55.784Z,61088
2017-05-28T08:27:56.041Z,60448
2017-05-28T08:28:56.024Z,56352
2017-05-28T08:29:56.014Z,53952
2017-05-28T08:30:55.700Z,47968
2017-05-28T08:31:56.004Z,46272
2017-05-28T08:32:56.004Z,44384
2017-05-28T08:33:55.985Z,46048
2017-05-28T08:34:55.673Z,49408
2017-05-28T08:35:55.976Z,52704
2017-05-28T08:36:55.976Z,62240
2017-05-28T08:37:56.020Z,66336
2017-05-28T08:38:55.979Z,61536
2017-05-28T08:39:55.972Z,49984
2017-05-28T08:40:55.986Z,31392
2017-05-28T08:41:55.946Z,48512
2017-05-28T08:42:55.944Z,45792
2017-05-28T08:43:55.933Z,43008
2017-05-28T08:44:55.937Z,41824
2017-05-28T08:45:55.927Z,46368
2017-05-28T08:46:56.229Z,23680
2017-05-28T08:47:56.156Z,15332
2017-05-28T08:48:55.911Z,17448
2017-05-28T08:49:55.950Z,29248
2017-05-28T08:50:55.938Z,58976
2017-05-28T08:51:55.887Z,62528
2017-05-28T08:52:55.883Z,61728
2017-05-28T08:53:55.920Z,61248
2017-05-28T08:54:55.885Z,63072
2017-05-28T08:55:55.860Z,31936
2017-05-28T08:56:55.843Z,40224
2017-05-28T08:57:55.841Z,48832
2017-05-28T08:58:55.835Z,54176
2017-05-28T08:59:55.524Z,28064
2017-05-28T09:00:55.831Z,33600
2017-05-28T09:01:55.821Z,71520
2017-05-28T09:02:55.816Z,41472
2017-05-28T09:03:55.804Z,39232
2017-05-28T09:04:55.788Z,31456
2017-05-28T09:05:55.840Z,34624
2017-05-28T09:06:55.790Z,72032
2017-05-28T09:07:55.772Z,38720
2017-05-28T09:08:55.766Z,29408
2017-05-28T09:09:55.761Z,61280
2017-05-28T09:10:55.749Z,56160
2017-05-28T09:11:55.742Z,51520
2017-05-28T09:12:55.741Z,67424
2017-05-28T09:13:55.732Z,69824
2017-05-28T09:14:55.723Z,69696
2017-05-28T09:15:55.709Z,68800
2017-05-28T09:16:55.713Z,69408
2017-05-28T09:17:55.715Z,69888
2017-05-28T09:18:55.719Z,66848
2017-05-28T09:19:55.688Z,65408
2017-05-28T09:20:55.686Z,65536
2017-05-28T09:21:55.770Z,64576
2017-05-28T09:22:55.679Z,59616
2017-05-28T09:23:55.665Z,64128
2017-05-28T09:24:55.669Z,63360
2017-05-28T09:25:55.651Z,52032
2017-05-28T09:26:55.656Z,45600
2017-05-28T09:27:55.647Z,43040
2017-05-28T09:28:55.347Z,47296
2017-05-28T09:29:55.634Z,52032
2017-05-28T09:30:55.630Z,51648
2017-05-28T09:31:55.618Z,48064
2017-05-28T09:32:55.621Z,55680
2017-05-28T09:33:55.625Z,55008
2017-05-28T09:34:55.604Z,28800
2017-05-28T09:35:55.603Z,31200
2017-05-28T09:36:55.292Z,59488
2017-05-28T09:37:55.585Z,63424
2017-05-28T09:38:55.581Z,50816
2017-05-28T09:39:55.589Z,41408
2017-05-28T09:40:55.571Z,61408
2017-05-28T09:41:55.563Z,34880
2017-05-28T09:42:55.565Z,49248
2017-05-28T09:43:55.561Z,40832
2017-05-28T09:44:55.540Z,46912
2017-05-28T09:45:55.242Z,52480
2017-05-28T09:46:55.548Z,38816
2017-05-28T09:47:55.534Z,25152
2017-05-28T09:48:55.522Z,23168
2017-05-28T09:49:55.511Z,23552
2017-05-28T09:50:55.510Z,20960
2017-05-28T09:51:55.502Z,19168
2017-05-28T09:52:55.507Z,17984
2017-05-28T09:53:55.502Z,17632
2017-05-28T09:54:55.485Z,17536
2017-05-28T09:55:55.459Z,17536
2017-05-28T09:56:55.470Z,17600
2017-05-28T09:57:55.155Z,17024
2017-05-28T09:58:55.487Z,16576
2017-05-28T09:59:55.183Z,15976
2017-05-28T10:00:55.428Z,15404
2017-05-28T10:01:55.114Z,14544
2017-05-28T10:02:55.412Z,13740
2017-05-28T10:03:55.405Z,13252
2017-05-28T10:04:55.390Z,13272
2017-05-28T10:05:55.680Z,13992
2017-05-28T10:06:55.364Z,14032
2017-05-28T10:07:55.366Z,14624
2017-05-28T10:08:54.738Z,15880
2017-05-28T10:09:55.339Z,16088
2017-05-28T10:10:55.323Z,16640
2017-05-28T10:11:55.305Z,17568
2017-05-28T10:12:55.295Z,23424
2017-05-28T10:13:55.283Z,45984
2017-05-28T10:14:54.972Z,60032
2017-05-28T10:15:55.261Z,62336
2017-05-28T10:16:55.239Z,26528
2017-05-28T10:17:55.234Z,20960
2017-05-28T10:18:54.921Z,22336
2017-05-28T10:19:55.208Z,28160
2017-05-28T10:20:55.182Z,33696
2017-05-28T10:21:55.226Z,105600
2017-05-28T10:22:55.201Z,144800
2017-05-28T10:23:55.157Z,108576
2017-05-28T10:24:55.142Z,32416
2017-05-28T10:25:55.125Z,23104
2017-05-28T10:26:55.122Z,27360
2017-05-28T10:27:54.819Z,39296
2017-05-28T10:28:54.853Z,108992
2017-05-28T10:29:55.088Z,33408
2017-05-28T10:30:55.063Z,34048
2017-05-28T10:31:55.058Z,102112
2017-05-28T10:32:54.788Z,76928
2017-05-28T10:33:55.035Z,43072
2017-05-28T10:34:54.726Z,37152
2017-05-28T10:35:55.259Z,40064
2017-05-28T10:36:55.009Z,32416
2017-05-28T10:37:54.997Z,27616
2017-05-28T10:38:54.975Z,26848
2017-05-28T10:39:54.972Z,23168
2017-05-28T10:40:54.963Z,20960
2017-05-28T10:41:54.953Z,20224
2017-05-28T10:42:54.942Z,20672
2017-05-28T10:43:54.623Z,19648
2017-05-28T10:44:54.922Z,19168
2017-05-28T10:45:54.604Z,19168
2017-05-28T10:46:54.894Z,19424
2017-05-28T10:47:54.933Z,21664
2017-05-28T10:48:54.867Z,26496
2017-05-28T10:49:54.860Z,23456
2017-05-28T10:50:54.840Z,21216
2017-05-28T10:51:54.837Z,19872
2017-05-28T10:52:54.813Z,23552
2017-05-28T10:53:54.811Z,30496
2017-05-28T10:54:54.507Z,71776
2017-05-28T10:55:54.780Z,43136
2017-05-28T10:56:54.475Z,24192
2017-05-28T10:57:54.824Z,21536
2017-05-28T10:58:54.747Z,20256
2017-05-28T10:59:54.738Z,19552
2017-05-28T11:00:54.717Z,20224
2017-05-28T11:01:54.705Z,19744
2017-05-28T11:02:54.464Z,20448
2017-05-28T11:03:54.733Z,19360
2017-05-28T11:04:54.679Z,19264
2017-05-28T11:05:54.658Z,19104
2017-05-28T11:06:54.399Z,18848
2017-05-28T11:07:54.632Z,17952
2017-05-28T11:08:54.634Z,17760
2017-05-28T11:09:54.604Z,18432
2017-05-28T11:10:54.589Z,18944
2017-05-28T11:11:54.633Z,18176
2017-05-28T11:12:54.569Z,17216
2017-05-28T11:13:54.552Z,16068
2017-05-28T11:14:54.543Z,15736
2017-05-28T11:15:54.534Z,15232
2017-05-28T11:16:54.515Z,14704
2017-05-28T11:17:54.513Z,14628
2017-05-28T11:18:54.539Z,15128
2017-05-28T11:19:54.169Z,15712
2017-05-28T11:20:54.479Z,17024
2017-05-28T11:21:54.445Z,18560
2017-05-28T11:22:54.434Z,19840
2017-05-28T11:23:54.117Z,21888
2017-05-28T11:24:54.411Z,23424
2017-05-28T11:25:54.385Z,22528
2017-05-28T11:26:54.368Z,20416
2017-05-28T11:27:54.362Z,18368
2017-05-28T11:28:54.348Z,16552
2017-05-28T11:29:54.324Z,14972
2017-05-28T11:30:54.337Z,13632
2017-05-28T11:31:54.354Z,12716
2017-05-28T11:32:54.300Z,12536
2017-05-28T11:33:54.296Z,13184
2017-05-28T11:34:54.277Z,13232
2017-05-28T11:35:54.256Z,14216
2017-05-28T11:36:54.246Z,15348
2017-05-28T11:37:54.215Z,16312
2017-05-28T11:38:54.206Z,17408
2017-05-28T11:39:54.189Z,18112
2017-05-28T11:40:54.178Z,18624
2017-05-28T11:41:54.180Z,18976
2017-05-28T11:42:54.217Z,19040
2017-05-28T11:43:54.139Z,19232
2017-05-28T11:44:53.818Z,17792
2017-05-28T11:45:54.101Z,16048
2017-05-28T11:46:53.783Z,15072
2017-05-28T11:47:53.771Z,16520
2017-05-28T11:48:54.066Z,16656
2017-05-28T11:49:54.098Z,16348
2017-05-28T11:50:54.029Z,16484
2017-05-28T11:51:54.019Z,16620
2017-05-28T11:52:54.008Z,16308
2017-05-28T11:53:53.983Z,15500
2017-05-28T11:54:53.971Z,15020
2017-05-28T11:55:53.655Z,14436
2017-05-28T11:56:53.948Z,13068
2017-05-28T11:57:53.944Z,11616
2017-05-28T11:58:53.916Z,10484
2017-05-28T11:59:53.621Z,9456
2017-05-28T12:00:53.942Z,9252
2017-05-28T12:01:53.570Z,9528
2017-05-28T12:02:53.867Z,9432
2017-05-28T12:03:53.852Z,9260
2017-05-28T12:04:53.544Z,9224
2017-05-28T12:05:53.864Z,8772
2017-05-28T12:06:53.802Z,8236
2017-05-28T12:07:53.793Z,7904
2017-05-28T12:08:53.467Z,7676
2017-05-28T12:09:53.756Z,7468
2017-05-28T12:10:53.743Z,7348
2017-05-28T12:11:53.780Z,7224
2017-05-28T12:12:53.416Z,7076
2017-05-28T12:13:53.704Z,6988
2017-05-28T12:14:53.699Z,6892
2017-05-28T12:15:53.671Z,6788
2017-05-28T12:16:53.660Z,6664
2017-05-28T12:17:53.637Z,6564
2017-05-28T12:18:53.619Z,6520
2017-05-28T12:19:53.310Z,6472
2017-05-28T12:20:53.297Z,6396
2017-05-28T12:21:53.583Z,6312
2017-05-28T12:22:53.571Z,6216
2017-05-28T12:23:52.980Z,6092
2017-05-28T12:24:53.253Z,6000
2017-05-28T12:25:53.513Z,5936
2017-05-28T12:26:53.511Z,5884
2017-05-28T12:27:53.480Z,5820
2017-05-28T12:28:53.476Z,5784
2017-05-28T12:29:53.210Z,5788
2017-05-28T12:30:53.391Z,5828
2017-05-28T12:31:53.429Z,5868
2017-05-28T12:32:53.670Z,5900
2017-05-28T12:33:53.097Z,5920
2017-05-28T12:34:52.820Z,5904
2017-05-28T12:35:53.367Z,5892
2017-05-28T12:36:53.415Z,5920
2017-05-28T12:37:53.098Z,5936
2017-05-28T12:38:53.324Z,5928
2017-05-28T12:39:53.004Z,5940
2017-05-28T12:40:52.988Z,5980
2017-05-28T12:41:52.962Z,6008
2017-05-28T12:42:52.957Z,6040
2017-05-28T12:43:52.948Z,6028
2017-05-28T12:44:52.920Z,6016
2017-05-28T12:45:52.906Z,6024
2017-05-28T12:46:52.892Z,5948
2017-05-28T12:47:52.565Z,5840
2017-05-28T12:48:52.553Z,5740
2017-05-28T12:49:52.246Z,5640
2017-05-28T12:50:52.517Z,5536
2017-05-28T12:51:53.108Z,5500
2017-05-28T12:52:52.786Z,5480
2017-05-28T12:53:53.072Z,5452
2017-05-28T12:54:53.064Z,5396
2017-05-28T12:55:52.439Z,5416
2017-05-28T12:56:53.035Z,5428
2017-05-28T12:57:52.722Z,5404
2017-05-28T12:58:52.695Z,5316
2017-05-28T12:59:52.687Z,5256
2017-05-28T13:00:53.022Z,5192
2017-05-28T13:01:52.367Z,5128
2017-05-28T13:02:52.636Z,5076
2017-05-28T13:03:52.911Z,5032
2017-05-28T13:04:52.920Z,4964
2017-05-28T13:05:52.657Z,4924
2017-05-28T13:06:52.872Z,4904
2017-05-28T13:07:52.547Z,4904
2017-05-28T13:08:52.627Z,4860
2017-05-28T13:09:51.981Z,4868
2017-05-28T13:10:52.230Z,4848
2017-05-28T13:11:52.786Z,4804
2017-05-28T13:12:52.802Z,4804
2017-05-28T13:13:51.865Z,4784
2017-05-28T13:14:51.866Z,4804
2017-05-28T13:15:51.886Z,4836
2017-05-28T13:16:52.443Z,4872
2017-05-28T13:17:52.117Z,4896
2017-05-28T13:18:51.800Z,4900
2017-05-28T13:19:51.795Z,4912
2017-05-28T13:20:52.669Z,4896
2017-05-28T13:21:52.043Z,4876
2017-05-28T13:22:51.783Z,4876
2017-05-28T13:23:52.107Z,4856
2017-05-28T13:24:51.761Z,4836
2017-05-28T13:25:52.567Z,4808
2017-05-28T13:26:52.623Z,4812
2017-05-28T13:27:51.638Z,4800